Time;durP1;ratioP1;P1;durP2;ratioP2;P2;SDS_P1;SDS_P2;PMS_P1;PMS_P2;Temp;Humidity;BMP_temperature;BMP_pressure;BME280_temperature;BME280_humidity;BME280_pressure;Samples;Min_cycle;Max_cycle;Signal;HPM_P1;HPM_P2
2022/04/16 00:00:28;;;;;;;27.27;19.63;;;;;;;8.13;79.26;103021.63;7390647;19;20014;-54
2022/04/16 00:02:58;;;;;;;27.42;20.13;;;;;;;8.20;80.55;103024.28;7388069;19;20038;-60
2022/04/16 00:05:27;;;;;;;25.05;19.15;;;;;;;8.24;79.69;103020.81;7390494;19;20018;-61
2022/04/16 00:08:10;;;;;;;24.25;19.13;;;;;;;8.07;80.85;103028.63;7390338;19;20333;-59
2022/04/16 00:10:42;;;;;;;26.83;20.10;;;;;;;8.05;80.14;103028.63;7389704;19;20034;-56
2022/04/16 00:13:11;;;;;;;24.90;19.77;;;;;;;7.95;80.50;103019.00;7389620;19;20431;-58
2022/04/16 00:15:43;;;;;;;26.90;20.02;;;;;;;7.90;80.09;103034.66;7389421;19;20015;-61
2022/04/16 00:18:13;;;;;;;27.75;20.08;;;;;;;7.94;80.63;103036.41;7389233;19;20021;-58
2022/04/16 00:20:42;;;;;;;25.58;19.23;;;;;;;7.82;80.90;103033.75;7389964;19;20029;-59
2022/04/16 00:23:11;;;;;;;27.55;19.88;;;;;;;7.99;80.81;103032.94;7388104;19;20026;-59
2022/04/16 00:25:42;;;;;;;24.55;19.83;;;;;;;7.93;81.02;103032.03;7391072;19;20650;-57
2022/04/16 00:28:10;;;;;;;25.52;20.08;;;;;;;7.99;80.69;103031.19;7390625;19;20474;-60
2022/04/16 00:30:43;;;;;;;28.02;20.45;;;;;;;7.97;80.58;103025.97;7388583;19;20018;-59
2022/04/16 00:33:14;;;;;;;28.03;20.17;;;;;;;7.84;80.69;103023.31;7389036;19;20026;-60
2022/04/16 00:35:44;;;;;;;27.48;20.08;;;;;;;7.89;81.82;103027.69;7389397;19;20018;-54
2022/04/16 00:38:14;;;;;;;27.92;19.77;;;;;;;7.93;80.87;103021.59;7390431;19;20037;-55
2022/04/16 00:40:43;;;;;;;31.48;20.85;;;;;;;7.92;81.26;103022.50;7389481;19;20018;-52
2022/04/16 00:43:22;;;;;;;30.60;20.45;;;;;;;7.96;80.94;103028.56;7389070;19;20018;-60
2022/04/16 00:45:55;;;;;;;25.95;19.88;;;;;;;7.95;80.92;103026.81;7389849;19;20014;-53
2022/04/16 00:48:25;;;;;;;28.40;21.13;;;;;;;7.91;80.69;103036.41;7390264;19;20022;-57
2022/04/16 00:50:56;;;;;;;30.63;22.13;;;;;;;7.91;81.21;103025.09;7388557;19;20018;-59
2022/04/16 00:53:27;;;;;;;28.70;21.58;;;;;;;7.84;81.50;103026.81;7388230;19;20033;-60
2022/04/16 00:55:56;;;;;;;30.65;21.80;;;;;;;7.79;81.85;103031.13;7386339;19;20022;-59
2022/04/16 00:58:25;;;;;;;27.95;21.42;;;;;;;7.79;82.13;103025.91;7390005;19;20606;-57
2022/04/16 01:00:57;;;;;;;27.65;21.25;;;;;;;7.72;82.24;103025.03;7389288;19;20014;-59
2022/04/16 01:03:26;;;;;;;30.58;22.33;;;;;;;7.50;82.05;103028.44;7387894;19;20462;-56
2022/04/16 01:05:55;;;;;;;30.05;22.25;;;;;;;7.54;82.30;103028.44;7389054;19;20014;-59
2022/04/16 01:08:24;;;;;;;30.15;22.15;;;;;;;7.50;82.80;103037.13;7385746;19;20111;-56
2022/04/16 01:10:53;;;;;;;29.33;21.95;;;;;;;7.53;82.73;103037.13;7387990;19;20019;-56
2022/04/16 01:13:22;;;;;;;30.92;22.23;;;;;;;7.41;82.86;103034.47;7387381;19;20014;-54
2022/04/16 01:15:51;;;;;;;34.17;22.67;;;;;;;7.47;83.39;103038.84;7387872;19;20053;-56
2022/04/16 01:18:22;;;;;;;30.02;23.15;;;;;;;7.42;83.16;103042.31;7388937;19;20006;-60
2022/04/16 01:20:51;;;;;;;31.77;23.33;;;;;;;7.45;83.71;103041.47;7387905;19;20034;-55
2022/04/16 01:23:23;;;;;;;34.55;24.35;;;;;;;7.47;82.81;103044.06;7387734;19;20432;-57
2022/04/16 01:25:51;;;;;;;31.83;23.65;;;;;;;7.30;83.55;103036.16;7388691;19;20021;-58
2022/04/16 01:28:20;;;;;;;34.65;24.48;;;;;;;7.23;84.57;103045.69;7395619;19;20341;-56
2022/04/16 01:30:49;;;;;;;34.33;24.98;;;;;;;7.17;83.88;103045.66;7402855;19;20018;-58
2022/04/16 01:33:18;;;;;;;33.75;24.05;;;;;;;7.22;84.34;103046.53;7401167;19;20014;-56
2022/04/16 01:35:51;;;;;;;34.28;24.98;;;;;;;7.19;83.95;103046.53;7401989;19;20018;-56
2022/04/16 01:38:25;;;;;;;;;;;;;;;7.23;84.75;103049.16;7404689;19;20017;-58
2022/04/16 01:40:55;;;;;;;34.03;24.15;;;;;;;7.33;83.91;103049.22;7402169;19;19933;-56
2022/04/16 01:43:25;;;;;;;34.80;24.90;;;;;;;7.35;83.62;103058.78;7401615;19;20022;-55
2022/04/16 01:45:55;;;;;;;33.78;25.38;;;;;;;7.31;83.73;103062.25;7401867;19;20029;-56
2022/04/16 01:48:27;;;;;;;36.95;25.65;;;;;;;7.21;84.27;103052.63;7402008;19;20011;-54
2022/04/16 01:50:56;;;;;;;32.35;24.13;;;;;;;7.17;84.63;103051.72;7401710;19;20022;-59
2022/04/16 01:53:28;;;;;;;33.83;24.92;;;;;;;7.29;84.16;103058.75;7400815;19;20022;-59
2022/04/16 01:55:57;;;;;;;37.90;24.95;;;;;;;7.30;83.69;103059.63;7401002;19;20014;-56
2022/04/16 01:58:26;;;;;;;34.38;25.02;;;;;;;7.23;84.08;103059.56;7402124;19;20111;-60
2022/04/16 02:00:55;;;;;;;38.00;26.00;;;;;;;7.08;84.61;103054.28;7401949;19;20013;-57
2022/04/16 02:03:24;;;;;;;43.15;26.80;;;;;;;7.12;84.72;103058.66;7401170;19;20478;-58
2022/04/16 02:05:53;;;;;;;35.05;24.80;;;;;;;7.18;84.35;103058.69;7402399;19;20010;-57
2022/04/16 02:08:22;;;;;;;38.60;26.08;;;;;;;6.98;85.25;103063.78;7402430;19;20015;-59
2022/04/16 02:10:54;;;;;;;40.00;26.67;;;;;;;6.98;85.66;103055.06;7400705;19;20014;-58
2022/04/16 02:13:23;;;;;;;39.20;25.95;;;;;;;7.03;85.13;103056.84;7400285;19;20022;-57
2022/04/16 02:15:52;;;;;;;36.75;25.52;;;;;;;6.98;85.85;103062.88;7401588;19;20033;-58
2022/04/16 02:18:23;;;;;;;33.83;25.35;;;;;;;6.91;85.48;103059.38;7400325;19;20014;-57
2022/04/16 02:20:52;;;;;;;37.85;26.15;;;;;;;6.91;85.87;103062.84;7405691;19;20066;-57
2022/04/16 02:23:21;;;;;;;35.22;25.20;;;;;;;6.73;86.40;103062.72;7400348;19;20015;-53
2022/04/16 02:25:53;;;;;;;38.30;26.48;;;;;;;6.59;86.79;103065.22;7402109;19;20026;-56
2022/04/16 02:28:24;;;;;;;38.53;26.35;;;;;;;6.62;87.03;103062.63;7401707;19;20099;-56
2022/04/16 02:30:53;;;;;;;40.92;26.80;;;;;;;6.75;87.37;103069.69;7401307;19;20026;-57
2022/04/16 02:33:22;;;;;;;39.25;25.42;;;;;;;6.74;87.09;103072.28;7399473;19;20021;-59
2022/04/16 02:35:51;;;;;;;37.03;26.63;;;;;;;6.77;86.27;103072.31;7400263;19;20014;-59
2022/04/16 02:38:20;;;;;;;37.13;25.60;;;;;;;6.76;87.02;103073.16;7402082;19;20021;-58
2022/04/16 02:40:49;;;;;;;39.50;26.85;;;;;;;6.69;86.48;103071.34;7392325;19;20022;-60
2022/04/16 02:43:18;;;;;;;38.45;25.80;;;;;;;6.66;86.91;103081.75;7392546;19;20010;-60
2022/04/16 02:48:45;;;;;;;40.20;26.95;;;;;;;6.54;87.49;103091.22;7390406;19;20441;-61
2022/04/16 02:51:14;;;;;;;42.58;29.35;;;;;;;6.56;88.03;103092.09;7392263;19;20020;-58
2022/04/16 02:53:43;;;;;;;39.45;26.90;;;;;;;6.58;87.53;103092.97;7393508;19;20125;-57
2022/04/16 02:56:15;;;;;;;41.90;27.48;;;;;;;6.68;87.69;103093.94;7390748;19;20025;-58
2022/04/16 02:58:44;;;;;;;39.47;27.35;;;;;;;6.66;87.75;103089.56;7393658;19;20014;-59
2022/04/16 03:01:15;;;;;;;41.70;27.88;;;;;;;6.70;87.65;103097.44;7395144;19;20011;-59
2022/04/16 03:03:44;;;;;;;43.47;28.20;;;;;;;6.67;87.64;103091.31;7392074;19;20020;-59
2022/04/16 03:06:13;;;;;;;42.22;28.02;;;;;;;6.68;87.96;103090.47;7393701;19;20020;-60
2022/04/16 03:08:43;;;;;;;40.85;27.75;;;;;;;6.57;88.15;103096.44;7392391;19;20022;-60
2022/04/16 03:11:11;;;;;;;41.28;27.95;;;;;;;6.51;88.21;103087.72;7392555;19;20531;-59
2022/04/16 03:13:40;;;;;;;43.75;28.90;;;;;;;6.60;89.03;103089.53;7391588;19;20026;-59
2022/04/16 03:18:53;;;;;;;39.78;27.73;;;;;;;6.48;88.58;103095.50;7393856;19;20118;-58
2022/04/16 03:21:22;;;;;;;39.53;28.65;;;;;;;6.44;89.43;103089.38;7393704;19;20026;-60
2022/04/16 03:23:51;;;;;;;39.72;27.73;;;;;;;6.45;89.66;103083.31;7390247;19;20054;-58
2022/04/16 03:26:20;;;;;;;42.40;29.40;;;;;;;6.46;89.31;103095.50;7393831;19;20577;-59
2022/04/16 03:28:49;;;;;;;38.05;27.02;;;;;;;6.39;89.53;103091.06;7392588;19;20019;-58
2022/04/16 03:31:17;;;;;;;41.65;27.90;;;;;;;6.43;90.05;103090.22;7392147;19;20029;-58
2022/04/16 03:33:46;;;;;;;40.10;27.77;;;;;;;6.32;90.22;103097.94;7390448;19;20010;-60
2022/04/16 03:36:18;;;;;;;42.83;28.17;;;;;;;6.28;90.75;103097.91;7391059;19;20018;-60
2022/04/16 03:38:46;;;;;;;39.75;28.55;;;;;;;6.10;91.42;103091.63;7392132;19;20014;-55
2022/04/16 03:41:15;;;;;;;42.83;28.92;;;;;;;6.28;91.51;103108.31;7391725;19;20014;-60
2022/04/16 03:43:44;;;;;;;44.67;30.17;;;;;;;6.20;91.12;103103.91;7390044;19;20029;-57
2022/04/16 03:46:13;;;;;;;43.15;29.67;;;;;;;6.35;91.57;103102.31;7392996;19;20025;-57
2022/04/16 03:48:43;;;;;;;41.15;29.60;;;;;;;6.26;91.00;103102.22;7392893;19;20472;-60
2022/04/16 03:51:11;;;;;;;41.88;29.67;;;;;;;6.42;91.00;103114.56;7392104;19;20033;-58
2022/04/16 03:53:43;;;;;;;43.08;30.40;;;;;;;6.41;90.78;103111.06;7390072;19;20029;-60
2022/04/16 04:01:40;;;;;;;46.95;30.98;;;;;;;6.30;91.06;103111.81;7395112;19;20010;-58
2022/04/16 04:04:10;;;;;;;45.13;30.67;;;;;;;6.29;90.89;103112.66;7392701;19;20017;-61
2022/04/16 04:06:40;;;;;;;44.83;30.30;;;;;;;6.16;91.99;103115.13;7407479;19;20033;-58
2022/04/16 04:09:11;;;;;;;47.53;31.77;;;;;;;6.24;91.73;103113.47;7411106;19;20018;-59
2022/04/16 04:11:40;;;;;;;41.05;29.20;;;;;;;6.32;91.39;103118.78;7390667;19;20018;-61
2022/04/16 04:14:09;;;;;;;49.97;31.88;;;;;;;6.27;91.50;103117.84;7392794;19;20034;-59
2022/04/16 04:16:38;;;;;;;43.83;29.50;;;;;;;6.36;91.80;103128.38;7391157;19;20026;-59
2022/04/16 04:19:06;;;;;;;47.58;32.00;;;;;;;6.38;91.37;103125.78;7392122;19;20014;-59
2022/04/16 04:21:35;;;;;;;44.85;31.70;;;;;;;6.34;91.54;103131.81;7392358;19;20021;-59
2022/04/16 04:24:04;;;;;;;44.75;31.00;;;;;;;6.23;91.95;103129.06;7392077;19;20034;-58
2022/04/16 04:26:36;;;;;;;43.17;30.98;;;;;;;6.14;92.43;103122.03;7391142;19;20018;-60
2022/04/16 04:29:05;;;;;;;45.38;32.35;;;;;;;6.09;92.84;103134.16;7390985;19;20017;-59
2022/04/16 04:31:34;;;;;;;46.35;31.58;;;;;;;6.01;93.42;103127.97;7391043;19;20038;-60
2022/04/16 04:34:02;;;;;;;48.28;32.38;;;;;;;6.15;93.10;103134.22;7391519;19;20053;-56
2022/04/16 04:36:31;;;;;;;49.78;33.33;;;;;;;6.12;93.23;103131.56;7390748;19;20022;-59
2022/04/16 04:39:00;;;;;;;47.17;32.30;;;;;;;6.14;92.51;103137.66;7390724;19;20025;-60
2022/04/16 04:41:29;;;;;;;49.30;32.75;;;;;;;6.30;93.11;103140.44;7391509;19;20019;-59
2022/04/16 04:44:00;;;;;;;50.50;32.90;;;;;;;6.15;92.63;103141.16;7389506;19;20011;-59
2022/04/16 04:46:29;;;;;;;54.50;34.03;;;;;;;6.02;93.32;103146.19;7391725;19;20011;-60
2022/04/16 04:48:58;;;;;;;48.33;32.50;;;;;;;6.12;93.58;103146.31;7392500;19;20466;-59
2022/04/16 04:51:27;;;;;;;51.67;34.03;;;;;;;5.98;94.33;103149.63;7392586;19;20011;-58
2022/04/16 04:53:56;;;;;;;50.97;34.65;;;;;;;6.05;93.97;103148.84;7391075;19;20519;-59
2022/04/16 04:56:25;;;;;;;50.83;34.10;;;;;;;6.06;94.16;103148.00;7391887;19;20023;-59
2022/04/16 04:58:54;;;;;;;46.75;32.03;;;;;;;6.15;94.75;103156.78;7392488;19;20010;-59
2022/04/16 05:01:25;;;;;;;51.28;34.95;;;;;;;6.03;94.47;103155.75;7394486;19;20491;-61
2022/04/16 05:03:54;;;;;;;48.22;32.63;;;;;;;6.08;94.38;103163.63;7388902;19;20503;-59
2022/04/16 05:06:23;;;;;;;52.17;35.38;;;;;;;6.23;93.50;103168.13;7394498;19;20021;-60
2022/04/16 05:08:52;;;;;;;51.05;34.00;;;;;;;6.06;94.91;103165.31;7391237;19;20054;-58
2022/04/16 05:11:21;;;;;;;50.95;34.92;;;;;;;6.15;95.16;103173.25;7391457;19;20019;-59
2022/04/16 05:13:50;;;;;;;56.97;36.35;;;;;;;6.15;94.44;103180.22;7391056;19;20021;-55
2022/04/16 05:16:19;;;;;;;50.28;35.50;;;;;;;6.24;94.90;103172.50;7391970;19;20031;-60
2022/04/16 05:18:50;;;;;;;50.38;35.03;;;;;;;6.22;94.71;103174.22;7393035;19;20017;-58
2022/04/16 05:21:19;;;;;;;57.25;36.05;;;;;;;6.20;95.12;103175.91;7392022;19;20018;-57
2022/04/16 05:23:48;;;;;;;53.38;36.17;;;;;;;6.18;95.68;103181.09;7390631;19;20487;-56
2022/04/16 05:26:17;;;;;;;54.38;35.20;;;;;;;6.32;94.74;103181.28;7392286;19;20353;-60
2022/04/16 05:28:46;;;;;;;54.90;37.28;;;;;;;6.33;94.91;103177.81;7391423;19;20075;-59
2022/04/16 05:31:15;;;;;;;56.15;36.90;;;;;;;6.38;94.96;103194.34;7390768;19;20624;-57
2022/04/16 05:36:27;;;;;;;61.70;37.53;;;;;;;6.31;96.17;103197.75;7396099;19;20577;-58
2022/04/16 05:38:56;;;;;;;59.30;37.88;;;;;;;6.45;95.64;103197.91;7393424;19;20022;-59
2022/04/16 05:41:25;;;;;;;57.97;38.47;;;;;;;6.45;95.69;103189.22;7391411;19;20018;-59
2022/04/16 05:43:55;;;;;;;56.15;37.35;;;;;;;6.50;95.73;103197.97;7390578;19;20444;-60
2022/04/16 05:46:24;;;;;;;62.20;38.50;;;;;;;6.66;95.25;103206.81;7392103;19;20427;-59
2022/04/16 05:48:53;;;;;;;55.63;37.60;;;;;;;6.69;94.96;103205.13;7391950;19;20025;-60
2022/04/16 05:51:23;;;;;;;60.15;38.88;;;;;;;6.68;95.54;103205.13;7390954;19;20026;-59
2022/04/16 05:53:55;;;;;;;58.13;37.75;;;;;;;6.66;96.21;103204.19;7389919;19;20349;-60
2022/04/16 05:56:25;;;;;;;59.50;38.43;;;;;;;6.73;95.73;103212.13;7390808;19;20076;-58
2022/04/16 05:58:54;;;;;;;59.50;39.05;;;;;;;6.84;95.75;103207.00;7389336;19;20057;-59
2022/04/16 06:01:23;;;;;;;55.17;37.95;;;;;;;6.89;95.31;103209.66;7390656;19;20428;-60
2022/04/16 06:03:52;;;;;;;56.85;37.58;;;;;;;6.81;95.83;103209.59;7393435;19;20011;-58
2022/04/16 06:06:20;;;;;;;58.17;37.55;;;;;;;6.87;96.15;103211.38;7418708;19;20051;-60
2022/04/16 06:08:49;;;;;;;60.38;38.67;;;;;;;6.96;95.80;103211.44;7390304;19;20011;-60
2022/04/16 06:11:24;;;;;;;56.88;38.58;;;;;;;6.97;95.76;103213.22;7392580;19;20018;-56
2022/04/16 06:13:53;;;;;;;60.25;39.13;;;;;;;7.04;95.33;103220.22;7390598;19;20030;-56
2022/04/16 06:16:22;;;;;;;54.97;37.38;;;;;;;7.06;95.60;103218.53;7396377;19;20034;-60
2022/04/16 06:18:51;;;;;;;57.67;37.92;;;;;;;7.06;96.13;103220.25;7398193;19;20014;-55
2022/04/16 06:21:20;;;;;;;56.35;38.65;;;;;;;7.19;95.66;103224.72;7397454;19;20014;-56
2022/04/16 06:23:49;;;;;;;59.15;37.63;;;;;;;7.30;94.96;103230.00;7395310;19;20110;-58
2022/04/16 06:26:17;;;;;;;53.80;37.45;;;;;;;7.26;95.01;103231.75;7399843;19;20023;-60
2022/04/16 06:28:49;;;;;;;51.75;37.38;;;;;;;7.41;94.92;103230.13;7400729;19;20011;-56
2022/04/16 06:31:18;;;;;;;53.45;37.45;;;;;;;7.47;94.45;103224.06;7398416;19;20015;-57
2022/04/16 06:33:46;;;;;;;52.45;36.17;;;;;;;7.59;93.94;103235.47;7395263;19;20019;-59
2022/04/16 06:36:15;;;;;;;51.75;35.25;;;;;;;7.69;93.59;103231.16;7397394;19;20017;-59
2022/04/16 06:38:44;;;;;;;47.90;34.15;;;;;;;7.74;92.58;103244.28;7395364;19;20122;-55
2022/04/16 06:41:13;;;;;;;50.10;33.15;;;;;;;7.85;92.28;103239.09;7397688;19;20015;-57
2022/04/16 06:43:42;;;;;;;50.00;34.00;;;;;;;7.98;91.73;103248.78;7396158;19;20014;-57
2022/04/16 06:46:14;;;;;;;45.83;32.67;;;;;;;8.01;90.75;103229.63;7397277;19;20017;-59
2022/04/16 06:48:43;;;;;;;40.13;29.88;;;;;;;8.06;90.03;103238.38;7398268;19;20023;-59
2022/04/16 06:51:11;;;;;;;41.65;29.35;;;;;;;8.04;89.93;103234.84;7396482;19;20014;-59
2022/04/16 06:53:40;;;;;;;41.92;30.25;;;;;;;8.15;89.61;103235.78;7395993;19;20014;-59
2022/04/16 06:56:09;;;;;;;40.63;29.38;;;;;;;8.25;88.59;103244.53;7394826;19;20021;-56
2022/04/16 06:58:38;;;;;;;42.47;30.10;;;;;;;8.10;88.71;103240.13;7394909;19;20014;-57
2022/04/16 07:01:07;;;;;;;40.92;29.60;;;;;;;7.90;89.07;103243.50;7398546;19;20307;-60
2022/04/16 07:03:38;;;;;;;42.17;29.05;;;;;;;7.96;89.53;103245.25;7394787;19;20018;-58
2022/04/16 07:06:07;;;;;;;40.30;29.30;;;;;;;8.14;89.41;103234.06;7396123;19;20483;-55
2022/04/16 07:08:36;;;;;;;44.95;31.60;;;;;;;8.32;88.62;103247.22;7395038;19;20340;-58
2022/04/16 07:11:05;;;;;;;42.60;30.05;;;;;;;8.30;87.34;103248.06;7394046;19;20022;-57
2022/04/16 07:13:33;;;;;;;40.28;28.65;;;;;;;8.28;88.03;103247.16;7393777;19;20014;-57
2022/04/16 07:16:02;;;;;;;40.05;29.15;;;;;;;8.18;87.68;103248.88;7395337;19;20379;-53
2022/04/16 07:18:31;;;;;;;38.28;27.40;;;;;;;8.24;86.90;103253.25;7393511;19;20021;-54
2022/04/16 07:21:03;;;;;;;40.03;28.40;;;;;;;8.37;87.11;103255.06;7394687;19;20022;-57
2022/04/16 07:23:31;;;;;;;42.17;28.45;;;;;;;8.42;86.39;103253.31;7391661;19;20021;-53
2022/04/16 07:26:00;;;;;;;39.63;27.75;;;;;;;8.31;86.57;103257.66;7397935;19;20014;-59
2022/04/16 07:28:29;;;;;;;36.65;27.33;;;;;;;8.40;86.35;103256.81;7397100;19;20014;-58
2022/04/16 07:30:58;;;;;;;39.20;28.27;;;;;;;8.51;86.00;103259.50;7393662;19;20021;-52
2022/04/16 07:33:30;;;;;;;40.50;28.02;;;;;;;8.47;86.17;103259.47;7391946;19;20025;-58
2022/04/16 07:35:59;;;;;;;41.35;28.23;;;;;;;8.57;85.92;103256.91;7395755;19;20010;-57
2022/04/16 07:38:31;;;;;;;39.25;27.77;;;;;;;8.70;85.62;103263.03;7396689;19;20053;-56
2022/04/16 07:40:59;;;;;;;37.67;27.52;;;;;;;8.81;84.41;103271.78;7394594;19;20014;-56
2022/04/16 07:43:29;;;;;;;38.08;26.75;;;;;;;8.87;84.11;103263.06;7394890;19;20015;-55
2022/04/16 07:45:58;;;;;;;35.40;26.15;;;;;;;8.89;84.40;103259.59;7398069;19;20011;-60
2022/04/16 07:48:27;;;;;;;34.10;26.17;;;;;;;9.17;83.57;103257.91;7398630;19;20014;-60
2022/04/16 07:50:56;;;;;;;35.35;26.67;;;;;;;9.32;82.62;103261.41;7396166;19;20014;-58
2022/04/16 07:53:25;;;;;;;35.58;26.38;;;;;;;9.35;82.71;103257.03;7394915;19;20018;-59
2022/04/16 07:55:56;;;;;;;35.85;25.75;;;;;;;9.41;81.69;103257.91;7396987;19;20030;-60
2022/04/16 07:58:25;;;;;;;34.08;25.85;;;;;;;9.38;81.33;103258.78;7394281;19;20019;-61
2022/04/16 08:00:54;;;;;;;34.33;25.23;;;;;;;9.38;81.85;103258.78;7396037;19;20023;-60
2022/04/16 08:03:22;;;;;;;36.13;25.50;;;;;;;9.64;80.33;103255.28;7398371;19;20014;-60
2022/04/16 08:05:51;;;;;;;32.85;24.63;;;;;;;9.60;80.68;103250.91;7419831;19;20021;-58
2022/04/16 08:08:20;;;;;;;30.95;23.50;;;;;;;9.78;79.15;103253.50;7407737;19;20479;-60
2022/04/16 08:10:51;;;;;;;31.13;22.83;;;;;;;9.93;78.43;103260.50;7394908;19;20372;-60
2022/04/16 08:13:23;;;;;;;32.17;23.58;;;;;;;9.95;78.12;103265.72;7393884;19;20024;-60
2022/04/16 08:15:52;;;;;;;29.38;22.23;;;;;;;9.95;76.55;103263.09;7395663;19;20019;-59
2022/04/16 08:18:21;;;;;;;28.33;21.38;;;;;;;9.98;76.83;103247.38;7394862;19;20438;-59
2022/04/16 08:20:50;;;;;;;29.80;21.13;;;;;;;10.04;76.79;103250.84;7394853;19;20533;-58
2022/04/16 08:23:19;;;;;;;29.30;21.20;;;;;;;9.85;76.62;103247.38;7394338;19;20126;-60
2022/04/16 08:25:48;;;;;;;27.55;20.67;;;;;;;10.13;76.00;103242.09;7394902;19;20018;-59
2022/04/16 08:28:18;;;;;;;28.13;20.42;;;;;;;10.19;75.49;103251.69;7395259;19;20037;-61
2022/04/16 08:30:50;;;;;;;28.33;21.00;;;;;;;10.57;74.58;103255.91;7393695;19;20043;-58
2022/04/16 08:33:19;;;;;;;26.27;19.60;;;;;;;10.53;72.68;103259.41;7393369;19;20020;-54
2022/04/16 08:35:48;;;;;;;24.65;18.48;;;;;;;10.58;73.20;103267.28;7393522;19;20015;-60
2022/04/16 08:38:17;;;;;;;23.58;18.25;;;;;;;10.70;71.76;103265.47;7389102;19;20037;-60
2022/04/16 08:40:46;;;;;;;24.45;18.75;;;;;;;10.70;71.69;103262.84;7391695;19;20035;-60
2022/04/16 08:43:15;;;;;;;26.27;18.13;;;;;;;10.91;71.83;103261.84;7391324;19;20014;-60
2022/04/16 08:45:45;;;;;;;23.88;18.00;;;;;;;10.99;70.79;103266.16;7394259;19;20334;-59
2022/04/16 08:48:17;;;;;;;25.63;18.83;;;;;;;10.94;70.13;103279.31;7396361;19;20483;-59
2022/04/16 08:50:46;;;;;;;25.10;17.65;;;;;;;11.15;69.72;103278.31;7394692;19;20340;-60
2022/04/16 08:53:15;;;;;;;23.17;18.08;;;;;;;11.41;68.94;103280.72;7390890;19;20021;-55
2022/04/16 08:55:44;;;;;;;22.63;17.27;;;;;;;11.42;69.30;103284.25;7392082;19;20006;-58
2022/04/16 08:58:13;;;;;;;22.35;16.85;;;;;;;11.31;68.95;103289.56;7390275;19;20017;-58
2022/04/16 09:00:42;;;;;;;23.98;17.75;;;;;;;11.48;68.66;103292.06;7391894;19;20014;-60
2022/04/16 09:03:11;;;;;;;24.85;18.80;;;;;;;11.47;69.46;103278.94;7389854;19;20022;-59
2022/04/16 09:05:42;;;;;;;27.23;19.42;;;;;;;11.57;68.70;103285.84;7391278;19;20011;-59
2022/04/16 09:08:11;;;;;;;24.85;17.80;;;;;;;11.77;68.12;103277.78;7390909;19;20018;-58
2022/04/16 09:10:43;;;;;;;24.30;17.50;;;;;;;12.02;67.52;103280.19;7390738;19;20022;-61
2022/04/16 09:13:12;;;;;;;23.02;17.48;;;;;;;11.75;67.44;103276.94;7390530;19;20064;-58
2022/04/16 09:15:41;;;;;;;20.75;16.48;;;;;;;11.80;67.29;103280.38;7392123;19;20039;-58
2022/04/16 09:18:13;;;;;;;21.23;16.25;;;;;;;12.10;65.37;103276.59;7390745;19;20014;-53
2022/04/16 09:20:44;;;;;;;22.05;15.90;;;;;;;12.21;65.54;103268.59;7390041;19;20010;-55
2022/04/16 09:23:20;;;;;;;20.15;15.63;;;;;;;12.45;64.03;103270.06;7388941;19;20022;-61
2022/04/16 09:25:50;;;;;;;23.17;17.63;;;;;;;12.50;65.00;103272.63;7390611;19;20025;-62
2022/04/16 09:28:21;;;;;;;20.35;16.38;;;;;;;12.53;63.66;103255.94;7390634;19;20014;-61
2022/04/16 09:30:52;;;;;;;17.80;14.93;;;;;;;12.62;62.30;103280.34;7389748;19;20488;-59
2022/04/16 09:33:21;;;;;;;18.45;14.50;;;;;;;12.54;60.78;103278.72;7388952;19;20023;-60
2022/04/16 09:35:55;;;;;;;19.27;15.07;;;;;;;12.31;62.26;103273.72;7390079;19;20078;-59
2022/04/16 09:38:25;;;;;;;19.48;15.93;;;;;;;12.11;63.71;103275.72;7389279;19;20018;-60
2022/04/16 09:40:53;;;;;;;20.98;15.82;;;;;;;12.34;63.15;103260.56;7389168;19;20026;-60
2022/04/16 09:43:22;;;;;;;19.42;15.68;;;;;;;12.32;63.68;103259.69;7389605;19;20033;-58
2022/04/16 09:45:51;;;;;;;20.67;15.25;;;;;;;12.92;62.92;103253.63;7389704;19;20029;-60
2022/04/16 09:48:22;;;;;;;27.27;20.08;;;;;;;13.11;60.49;103251.56;7389630;19;20030;-57
2022/04/16 09:50:54;;;;;;;19.38;14.52;;;;;;;12.72;61.53;103243.38;7396290;19;20476;-58
2022/04/16 09:53:25;;;;;;;18.25;14.27;;;;;;;12.97;61.11;103241.28;7395629;19;20471;-56
2022/04/16 09:55:55;;;;;;;19.85;14.68;;;;;;;13.08;60.97;103241.97;7397164;19;20022;-60
2022/04/16 09:58:30;;;;;;;23.05;16.25;;;;;;;13.26;60.46;103248.69;7397247;19;20014;-58
2022/04/16 10:00:59;;;;;;;17.60;14.20;;;;;;;13.15;60.62;103250.63;7399615;19;20018;-60
2022/04/16 10:03:29;;;;;;;17.35;13.85;;;;;;;13.04;59.22;103242.91;7396582;19;20082;-56
2022/04/16 10:06:01;;;;;;;16.10;12.80;;;;;;;12.88;59.58;103249.28;7396026;19;20034;-60
2022/04/16 10:08:31;;;;;;;16.13;13.05;;;;;;;12.96;58.92;103252.69;7413378;19;20014;-60
2022/04/16 10:11:03;;;;;;;16.92;13.38;;;;;;;12.62;60.17;103253.16;7417961;19;20349;-60
2022/04/16 10:13:41;;;;;;;17.40;13.60;;;;;;;12.37;60.56;103242.97;7395146;19;20014;-60
2022/04/16 10:16:20;;;;;;;17.40;13.45;;;;;;;12.56;60.38;103258.50;7395952;19;20019;-59
2022/04/16 10:18:49;;;;;;;16.33;12.30;;;;;;;12.71;59.51;103247.78;7395079;19;20015;-63
2022/04/16 10:21:20;;;;;;;17.88;12.20;;;;;;;13.04;59.14;103240.28;7395192;19;20018;-56
2022/04/16 10:23:49;;;;;;;15.63;11.98;;;;;;;13.30;57.56;103249.53;7393795;19;20025;-60
2022/04/16 10:26:20;;;;;;;15.93;11.00;;;;;;;13.21;56.82;103252.28;7396150;19;20015;-60
2022/04/16 10:28:55;;;;;;;13.35;11.07;;;;;;;12.97;56.77;103233.38;7396048;19;20015;-60
2022/04/16 10:31:25;;;;;;;14.07;11.15;;;;;;;12.41;58.85;103238.56;7395191;19;20021;-60
2022/04/16 10:34:02;;;;;;;14.15;10.60;;;;;;;12.66;57.74;103240.84;7393132;19;20356;-61
2022/04/16 10:36:37;;;;;;;14.07;9.98;;;;;;;12.87;56.20;103240.53;7396084;19;20018;-61
2022/04/16 10:39:15;;;;;;;12.38;9.82;;;;;;;13.42;57.00;103216.88;7393368;19;20019;-60
2022/04/16 10:41:55;;;;;;;13.75;9.93;;;;;;;13.54;54.45;103231.56;7395257;19;20320;-61
2022/04/16 10:44:24;;;;;;;11.45;8.75;;;;;;;13.45;53.37;103235.25;7395460;19;20019;-58
2022/04/16 10:46:55;;;;;;;12.95;8.13;;;;;;;13.68;53.17;103237.47;7395416;19;20014;-60
2022/04/16 10:49:27;;;;;;;9.65;7.57;;;;;;;13.72;50.91;103233.88;7394344;19;20026;-60
2022/04/16 10:51:59;;;;;;;7.32;6.38;;;;;;;13.72;49.36;103233.03;7395433;19;20482;-60
2022/04/16 10:54:32;;;;;;;9.02;6.38;;;;;;;14.01;50.83;103232.44;7395306;19;20014;-59
2022/04/16 10:57:01;;;;;;;8.07;5.80;;;;;;;13.99;50.45;103226.34;7398730;19;20021;-60
2022/04/16 10:59:41;;;;;;;7.38;5.68;;;;;;;14.14;49.11;103225.16;7394905;19;20111;-59
2022/04/16 11:02:21;;;;;;;8.45;6.32;;;;;;;14.08;49.27;103230.56;7399438;19;20042;-62
2022/04/16 11:04:58;;;;;;;9.52;6.00;;;;;;;14.43;48.36;103231.56;7404396;19;20018;-58
2022/04/16 11:07:35;;;;;;;13.77;8.57;;;;;;;14.69;49.30;103225.75;7397686;19;20018;-60
2022/04/16 11:10:05;;;;;;;8.35;6.53;;;;;;;14.72;47.78;103228.31;7396318;19;20014;-58
2022/04/16 11:12:34;;;;;;;7.53;6.20;;;;;;;14.73;47.25;103230.06;7396859;19;20022;-59
2022/04/16 11:15:03;;;;;;;8.50;5.82;;;;;;;14.74;47.02;103229.16;7396651;19;20468;-58
2022/04/16 11:17:35;;;;;;;8.27;6.47;;;;;;;14.50;47.70;103226.16;7397899;19;20027;-60
2022/04/16 11:20:08;;;;;;;7.30;6.20;;;;;;;14.43;47.34;103226.28;7393167;19;20021;-61
2022/04/16 11:22:40;;;;;;;7.75;5.65;;;;;;;14.39;47.80;103227.28;7397383;19;20018;-60
2022/04/16 11:25:11;;;;;;;12.70;6.82;;;;;;;14.80;47.70;103218.47;7395503;19;20007;-63
2022/04/16 11:35:57;;;;;;;8.75;6.05;;;;;;;15.78;45.85;103214.19;7392455;19;20018;-63
2022/04/16 11:38:33;;;;;;;8.98;6.22;;;;;;;15.01;45.87;103219.69;7391566;19;20011;-62
2022/04/16 11:41:04;;;;;;;14.15;6.35;;;;;;;15.45;45.64;103222.13;7391455;19;20026;-62
2022/04/16 11:43:38;;;;;;;9.38;6.40;;;;;;;15.89;44.78;103211.31;7390308;19;20480;-63
2022/04/16 11:46:14;;;;;;;14.32;6.15;;;;;;;15.78;44.65;103210.69;7392283;19;20391;-63
2022/04/16 11:48:46;;;;;;;7.65;5.78;;;;;;;15.80;43.71;103222.97;7392340;19;20019;-62
2022/04/16 11:51:16;;;;;;;7.72;6.07;;;;;;;16.12;43.15;103207.09;7391435;19;20015;-65